createdAt,value
2022-10-13T00:01:22.405Z,14.03
2022-10-13T00:03:51.441Z,14.43
2022-10-13T00:06:25.364Z,14.00
2022-10-13T00:08:54.427Z,14.63
2022-10-13T00:11:25.688Z,14.43
2022-10-13T00:13:57.246Z,14.67
2022-10-13T00:16:26.750Z,15.67
2022-10-13T00:18:55.092Z,14.33
2022-10-13T00:21:26.991Z,15.27
2022-10-13T00:23:55.689Z,15.10
2022-10-13T00:26:26.013Z,15.77
2022-10-13T00:28:55.603Z,14.90
2022-10-13T00:31:27.646Z,14.53
2022-10-13T00:33:57.162Z,14.87
2022-10-13T00:36:28.817Z,15.27
2022-10-13T00:38:57.338Z,14.93
2022-10-13T00:41:25.407Z,15.30
2022-10-13T00:44:02.518Z,15.27
2022-10-13T00:46:33.515Z,14.50
2022-10-13T00:49:08.038Z,15.17
2022-10-13T00:51:44.469Z,15.20
2022-10-13T00:54:20.572Z,15.50
2022-10-13T00:56:51.387Z,15.13
2022-10-13T00:59:27.345Z,15.77
2022-10-13T01:01:59.298Z,16.37
2022-10-13T01:04:33.228Z,16.60
2022-10-13T01:07:04.034Z,16.67
2022-10-13T01:09:37.582Z,16.63
2022-10-13T01:12:21.925Z,15.67
2022-10-13T01:15:03.013Z,16.20
2022-10-13T01:17:41.345Z,16.83
2022-10-13T01:20:42.698Z,16.73
2022-10-13T01:23:42.131Z,17.23
2022-10-13T01:26:42.673Z,17.17
2022-10-13T01:29:34.396Z,17.53
2022-10-13T01:32:14.929Z,17.93
2022-10-13T01:34:55.658Z,19.33
2022-10-13T01:37:34.777Z,17.83
2022-10-13T01:40:10.299Z,18.00
2022-10-13T01:42:46.961Z,18.55
2022-10-13T01:45:22.218Z,18.07
2022-10-13T01:47:52.918Z,18.97
2022-10-13T01:50:20.990Z,18.53
2022-10-13T01:52:51.924Z,17.97
2022-10-13T01:55:20.049Z,18.90
2022-10-13T01:57:47.935Z,18.33
2022-10-13T02:00:21.105Z,17.10
2022-10-13T02:03:09.056Z,17.30
2022-10-13T02:05:49.571Z,17.80
2022-10-13T02:08:28.372Z,18.03
2022-10-13T02:11:12.457Z,17.47
2022-10-13T02:13:46.277Z,17.93
2022-10-13T02:16:23.626Z,17.73
2022-10-13T02:18:53.398Z,17.33
2022-10-13T02:21:21.478Z,18.70
2022-10-13T02:23:50.130Z,17.10
2022-10-13T02:26:21.925Z,17.40
2022-10-13T02:28:58.537Z,16.07
2022-10-13T02:31:26.484Z,16.53
2022-10-13T02:33:55.550Z,16.80
2022-10-13T02:36:23.982Z,17.33
2022-10-13T02:38:51.876Z,17.20
2022-10-13T02:41:19.804Z,17.07
2022-10-13T02:43:47.652Z,17.07
2022-10-13T02:46:15.571Z,16.60
2022-10-13T02:48:44.677Z,16.20
2022-10-13T02:51:13.757Z,16.57
2022-10-13T02:53:41.502Z,16.40
2022-10-13T02:56:09.442Z,15.90
2022-10-13T02:58:38.099Z,16.70
2022-10-13T03:01:07.175Z,16.03
2022-10-13T03:03:36.184Z,16.43
2022-10-13T03:06:04.361Z,16.73
2022-10-13T03:08:35.376Z,17.13
2022-10-13T03:11:03.289Z,16.77
2022-10-13T03:13:31.063Z,16.53
2022-10-13T03:16:06.853Z,16.42
2022-10-13T03:18:35.212Z,17.47
2022-10-13T03:21:06.714Z,17.73
2022-10-13T03:23:35.838Z,17.23
2022-10-13T03:26:04.497Z,17.83
2022-10-13T03:28:32.391Z,18.23
2022-10-13T03:31:02.134Z,19.00
2022-10-13T03:33:29.957Z,18.77
2022-10-13T03:36:02.308Z,17.50
2022-10-13T03:38:32.259Z,17.20
2022-10-13T03:41:07.209Z,17.30
2022-10-13T03:43:35.769Z,16.25
2022-10-13T03:46:05.927Z,16.20
2022-10-13T03:48:36.255Z,17.03
2022-10-13T03:51:06.428Z,16.60
2022-10-13T03:53:34.989Z,16.80
2022-10-13T03:56:06.538Z,16.83
2022-10-13T03:58:36.457Z,17.50
2022-10-13T04:01:05.892Z,18.13
2022-10-13T04:03:34.951Z,17.53
2022-10-13T04:06:05.549Z,16.90
2022-10-13T04:08:34.436Z,16.23
2022-10-13T04:11:06.492Z,16.10
2022-10-13T04:13:34.713Z,16.27
2022-10-13T04:16:03.584Z,16.83
2022-10-13T04:18:32.093Z,16.70
2022-10-13T04:21:00.299Z,16.50
2022-10-13T04:23:29.272Z,15.13
2022-10-13T04:25:57.670Z,15.80
2022-10-13T04:28:26.927Z,16.10
2022-10-13T04:30:54.741Z,15.70
2022-10-13T04:33:22.516Z,16.07
2022-10-13T04:35:50.457Z,16.07
2022-10-13T04:38:18.293Z,16.00
2022-10-13T04:40:46.037Z,16.13
2022-10-13T04:43:15.753Z,16.13
2022-10-13T04:45:44.858Z,15.50
2022-10-13T04:48:12.850Z,15.07
2022-10-13T04:50:40.867Z,15.70
2022-10-13T04:53:08.655Z,15.77
2022-10-13T04:55:37.148Z,15.47
2022-10-13T04:58:04.979Z,15.10
2022-10-13T05:00:32.857Z,15.77
2022-10-13T05:03:02.033Z,15.90
2022-10-13T05:05:29.799Z,16.07
2022-10-13T05:07:57.537Z,15.37
2022-10-13T05:10:25.429Z,15.63
2022-10-13T05:12:53.836Z,15.67
2022-10-13T05:15:21.575Z,16.60
2022-10-13T05:17:49.521Z,15.50
2022-10-13T05:20:18.621Z,16.80
2022-10-13T05:22:46.407Z,16.17
2022-10-13T05:25:14.273Z,16.03
2022-10-13T05:27:42.142Z,15.43
2022-10-13T05:30:12.138Z,14.83
2022-10-13T05:32:40.265Z,16.10
2022-10-13T05:35:09.849Z,15.57
2022-10-13T05:37:42.650Z,14.87
2022-10-13T05:40:11.724Z,15.77
2022-10-13T05:42:39.604Z,16.37
2022-10-13T05:45:11.088Z,15.80
2022-10-13T05:47:39.012Z,15.17
2022-10-13T05:50:08.426Z,14.70
2022-10-13T05:52:37.851Z,15.37
2022-10-13T05:55:11.142Z,15.47
2022-10-13T05:57:44.334Z,15.53
2022-10-13T06:00:15.920Z,14.73
2022-10-13T06:02:49.543Z,15.20
2022-10-13T06:05:21.797Z,15.57
2022-10-13T06:07:55.889Z,15.90
2022-10-13T06:10:26.164Z,15.27
2022-10-13T06:12:54.031Z,15.30
2022-10-13T06:15:27.812Z,15.43
2022-10-13T06:17:57.399Z,15.68
2022-10-13T06:20:27.401Z,15.70
2022-10-13T06:22:55.254Z,14.87
2022-10-13T06:25:23.216Z,15.30
2022-10-13T06:27:52.435Z,15.50
2022-10-13T06:30:20.307Z,15.50
2022-10-13T06:32:48.185Z,15.30
2022-10-13T06:35:16.123Z,14.80
2022-10-13T06:37:46.318Z,16.07
2022-10-13T06:40:14.775Z,15.33
2022-10-13T06:42:42.732Z,15.70
2022-10-13T06:45:12.335Z,15.30
2022-10-13T06:47:41.334Z,15.40
2022-10-13T06:50:10.024Z,14.93
2022-10-13T06:52:38.206Z,14.83
2022-10-13T06:55:07.017Z,14.87
2022-10-13T06:57:36.022Z,15.30
2022-10-13T07:00:08.187Z,14.70
2022-10-13T07:02:37.675Z,14.33
2022-10-13T07:05:06.243Z,14.60
2022-10-13T07:07:34.057Z,14.33
2022-10-13T07:10:02.052Z,14.50
2022-10-13T07:12:29.836Z,15.07
2022-10-13T07:14:57.714Z,14.47
2022-10-13T07:17:25.642Z,14.30
2022-10-13T07:19:57.828Z,14.40
2022-10-13T07:22:27.016Z,14.53
2022-10-13T15:53:21.656Z,23.05
2022-10-13T15:55:50.991Z,23.83
2022-10-13T15:58:18.805Z,24.23
2022-10-13T16:00:46.680Z,25.23
2022-10-13T16:03:17.919Z,28.15
2022-10-13T16:05:46.943Z,27.25
2022-10-13T16:08:14.837Z,26.25
2022-10-13T16:10:43.556Z,27.13
2022-10-13T16:13:15.366Z,27.25
2022-10-13T16:15:43.094Z,25.58
2022-10-13T16:18:10.817Z,26.33
2022-10-13T16:20:40.626Z,28.13
2022-10-13T16:23:08.329Z,28.17
2022-10-13T16:25:39.375Z,29.88
2022-10-13T16:28:07.150Z,30.77
2022-10-13T16:30:37.437Z,29.73
2022-10-13T16:33:05.308Z,29.50
2022-10-13T16:35:34.229Z,29.45
2022-10-13T16:38:02.078Z,30.40
2022-10-13T16:40:34.408Z,32.35
2022-10-13T16:43:02.082Z,31.63
2022-10-13T16:45:47.892Z,33.60
2022-10-13T16:48:18.854Z,32.55
2022-10-13T16:50:46.788Z,33.65
2022-10-13T16:53:14.546Z,35.90
2022-10-13T16:55:42.477Z,35.58
2022-10-13T16:58:10.635Z,53.72
2022-10-13T17:00:39.356Z,37.78
2022-10-13T17:03:07.766Z,37.75
2022-10-13T17:05:37.127Z,38.40
2022-10-13T17:08:05.262Z,36.72
2022-10-13T17:10:33.890Z,35.08
2022-10-13T17:13:01.991Z,35.53
2022-10-13T17:15:32.963Z,36.67
2022-10-13T17:18:00.649Z,35.80
2022-10-13T17:20:28.342Z,36.45
2022-10-13T17:22:57.428Z,35.38
2022-10-13T17:25:25.197Z,37.28
2022-10-13T17:27:53.075Z,37.03
2022-10-13T17:30:21.169Z,40.95
2022-10-13T17:32:49.768Z,36.05
2022-10-13T17:35:18.080Z,38.38
2022-10-13T17:37:49.067Z,39.65
2022-10-13T17:40:20.317Z,41.65
2022-10-13T17:42:48.097Z,43.60
2022-10-13T17:45:16.406Z,41.13
2022-10-13T17:47:48.393Z,44.07
2022-10-13T17:50:16.826Z,45.05
2022-10-13T17:52:44.659Z,43.08
2022-10-13T17:55:12.502Z,45.70
2022-10-13T17:57:41.548Z,46.60
2022-10-13T18:00:11.212Z,46.05
2022-10-13T18:02:42.844Z,46.20
2022-10-13T18:05:10.964Z,45.85
2022-10-13T18:07:38.857Z,47.60
2022-10-13T18:10:08.004Z,46.22
2022-10-13T18:12:35.736Z,44.63
2022-10-13T18:15:06.572Z,44.78
2022-10-13T18:17:34.330Z,49.92
2022-10-13T18:20:02.049Z,43.28
2022-10-13T18:22:31.174Z,44.22
2022-10-13T18:24:59.809Z,44.47
2022-10-13T18:27:27.507Z,46.08
2022-10-13T18:29:55.261Z,47.15
2022-10-13T18:32:25.530Z,47.63
2022-10-13T18:34:56.179Z,48.88
2022-10-13T18:37:24.057Z,46.00
2022-10-13T18:39:51.810Z,45.15
2022-10-13T18:42:19.580Z,47.08
2022-10-13T18:44:47.346Z,47.05
2022-10-13T18:47:15.167Z,47.47
2022-10-13T18:49:44.297Z,45.58
2022-10-13T18:52:12.816Z,49.38
2022-10-13T18:54:40.524Z,53.70
2022-10-13T18:57:08.247Z,45.53
2022-10-13T18:59:38.582Z,52.38
2022-10-13T19:02:06.877Z,50.28
2022-10-13T19:04:35.991Z,49.60
2022-10-13T19:07:05.060Z,47.25
2022-10-13T19:09:35.151Z,48.47
2022-10-13T19:12:03.024Z,45.22
2022-10-13T19:14:30.993Z,47.35
2022-10-13T19:17:01.943Z,49.42
2022-10-13T19:19:30.600Z,44.88
2022-10-13T19:21:58.565Z,47.72
2022-10-13T19:24:27.980Z,48.17
2022-10-13T19:26:56.145Z,45.30
2022-10-13T19:29:23.920Z,45.22
2022-10-13T19:31:51.698Z,44.67
2022-10-13T19:34:19.420Z,44.25
2022-10-13T19:36:47.429Z,51.03
2022-10-13T19:39:20.520Z,52.47
2022-10-13T19:41:52.583Z,58.10
2022-10-13T19:44:22.439Z,48.10
2022-10-13T19:46:52.221Z,59.42
2022-10-13T19:49:26.244Z,53.72
2022-10-13T19:51:55.927Z,54.70
2022-10-13T19:54:25.755Z,52.75
2022-10-13T19:56:57.356Z,50.17
2022-10-13T19:59:25.176Z,60.63
2022-10-13T20:01:52.908Z,55.63
2022-10-13T20:04:20.727Z,52.75
2022-10-13T20:06:49.893Z,54.30
2022-10-13T20:09:19.491Z,56.05
2022-10-13T20:11:50.714Z,49.88
2022-10-13T20:14:19.945Z,52.55
2022-10-13T20:16:47.920Z,51.63
2022-10-13T20:19:19.253Z,52.72
2022-10-13T20:21:48.114Z,52.95
2022-10-13T20:24:15.948Z,56.97
2022-10-13T20:26:43.773Z,46.72
2022-10-13T20:29:11.651Z,54.63
2022-10-13T20:31:41.517Z,57.17
2022-10-13T20:34:10.888Z,57.23
2022-10-13T20:36:39.417Z,58.13
2022-10-13T20:39:08.862Z,49.80
2022-10-13T20:41:36.740Z,50.67
2022-10-13T20:44:04.716Z,55.70
2022-10-13T20:46:34.544Z,58.00
2022-10-13T20:49:12.664Z,59.25
2022-10-13T20:51:42.575Z,59.60
2022-10-13T20:54:12.649Z,61.53
2022-10-13T20:56:41.206Z,56.22
2022-10-13T20:59:11.586Z,54.38
2022-10-13T21:01:39.364Z,53.67
2022-10-13T21:04:08.657Z,52.33
2022-10-13T21:06:36.902Z,53.90
2022-10-13T21:09:07.177Z,45.65
2022-10-13T21:11:36.208Z,47.85
2022-10-13T21:14:06.690Z,45.45
2022-10-13T21:16:35.813Z,44.88
2022-10-13T21:19:08.572Z,45.63
2022-10-13T21:21:36.701Z,50.20
2022-10-13T21:24:07.290Z,46.67
2022-10-13T21:26:36.832Z,47.60
2022-10-13T21:29:05.196Z,49.13
2022-10-13T21:31:35.351Z,49.25
2022-10-13T21:34:03.202Z,48.40
2022-10-13T21:36:33.523Z,50.00
2022-10-13T21:39:04.403Z,50.13
2022-10-13T21:41:33.988Z,44.75
2022-10-13T21:44:02.023Z,46.95
2022-10-13T21:46:34.330Z,47.70
2022-10-13T21:49:05.061Z,48.72
2022-10-13T21:51:37.690Z,45.30
2022-10-13T21:54:10.185Z,45.72
2022-10-13T21:56:39.992Z,44.03
2022-10-13T21:59:09.982Z,44.65
2022-10-13T22:01:37.711Z,47.17
2022-10-13T22:04:12.940Z,44.92
2022-10-13T22:06:42.590Z,47.83
2022-10-13T22:09:10.989Z,46.75
2022-10-13T22:11:39.828Z,46.50
2022-10-13T22:14:13.986Z,43.85
2022-10-13T22:16:44.631Z,45.83
2022-10-13T22:19:13.915Z,41.47
2022-10-13T22:21:45.708Z,45.03
2022-10-13T22:24:17.180Z,40.60
2022-10-13T22:26:47.504Z,39.30
2022-10-13T22:29:19.454Z,39.90
2022-10-13T22:31:49.090Z,33.55
2022-10-13T22:34:17.720Z,38.53
2022-10-13T22:36:46.828Z,38.75
2022-10-13T22:39:15.594Z,36.22
2022-10-13T22:41:43.782Z,34.17
2022-10-13T22:44:12.591Z,35.65
2022-10-13T22:46:40.726Z,36.05
2022-10-13T22:49:13.287Z,34.92
2022-10-13T22:51:41.012Z,34.72
2022-10-13T22:54:10.246Z,33.28
2022-10-13T22:56:39.929Z,31.77
2022-10-13T22:59:09.249Z,25.77
2022-10-13T23:01:37.074Z,26.45
2022-10-13T23:04:05.551Z,28.45
2022-10-13T23:06:35.876Z,23.58
2022-10-13T23:09:11.669Z,22.70
2022-10-13T23:11:40.369Z,25.23
2022-10-13T23:14:09.083Z,24.70
2022-10-13T23:16:36.941Z,25.60
2022-10-13T23:19:04.888Z,25.58
2022-10-13T23:21:32.645Z,25.90
2022-10-13T23:24:03.513Z,27.52
2022-10-13T23:26:33.902Z,28.73
2022-10-13T23:29:02.052Z,28.85
2022-10-13T23:31:29.915Z,31.15
2022-10-13T23:33:58.764Z,31.17
2022-10-13T23:36:29.221Z,30.17
2022-10-13T23:39:00.221Z,30.55
2022-10-13T23:41:29.083Z,30.45
2022-10-13T23:43:58.461Z,29.00
2022-10-13T23:46:26.305Z,31.30
2022-10-13T23:48:54.734Z,29.13
2022-10-13T23:51:25.088Z,29.42
2022-10-13T23:53:54.813Z,24.95
2022-10-13T23:56:23.439Z,27.60
2022-10-13T23:58:51.677Z,28.25
